sensor_id;sensor_type;location;lat;lon;timestamp;P1;durP1;ratioP1;P2;durP2;ratioP2
14272;SDS011;7220;49.450;11.052;2023-06-04T00:03:51;3.35;;;2.00;;
14272;SDS011;7220;49.450;11.052;2023-06-04T00:07:53;2.40;;;1.85;;
14272;SDS011;7220;49.450;11.052;2023-06-04T00:11:53;2.60;;;1.83;;
14272;SDS011;7220;49.450;11.052;2023-06-04T00:15:53;2.40;;;1.85;;
14272;SDS011;7220;49.450;11.052;2023-06-04T00:19:54;3.50;;;2.17;;
14272;SDS011;7220;49.450;11.052;2023-06-04T00:23:54;4.10;;;2.00;;
14272;SDS011;7220;49.450;11.052;2023-06-04T00:27:54;2.17;;;1.75;;
14272;SDS011;7220;49.450;11.052;2023-06-04T00:31:55;2.50;;;1.90;;
14272;SDS011;7220;49.450;11.052;2023-06-04T00:35:55;3.65;;;1.92;;
14272;SDS011;7220;49.450;11.052;2023-06-04T00:39:55;3.05;;;1.70;;
14272;SDS011;7220;49.450;11.052;2023-06-04T00:43:56;3.95;;;1.90;;
14272;SDS011;7220;49.450;11.052;2023-06-04T00:47:56;3.97;;;1.80;;
14272;SDS011;7220;49.450;11.052;2023-06-04T00:51:56;2.35;;;1.63;;
14272;SDS011;7220;49.450;11.052;2023-06-04T00:55:57;2.80;;;1.90;;
14272;SDS011;7220;49.450;11.052;2023-06-04T00:59:57;2.33;;;2.13;;
14272;SDS011;7220;49.450;11.052;2023-06-04T01:03:58;3.42;;;1.70;;
14272;SDS011;7220;49.450;11.052;2023-06-04T01:08:00;3.53;;;2.35;;
14272;SDS011;7220;49.450;11.052;2023-06-04T01:12:03;2.35;;;2.10;;
14272;SDS011;7220;49.450;11.052;2023-06-04T01:16:04;2.53;;;2.17;;
14272;SDS011;7220;49.450;11.052;2023-06-04T01:24:24;3.45;;;2.20;;
14272;SDS011;7220;49.450;11.052;2023-06-04T01:28:26;4.65;;;2.20;;
14272;SDS011;7220;49.450;11.052;2023-06-04T01:32:26;2.65;;;1.95;;
14272;SDS011;7220;49.450;11.052;2023-06-04T01:36:27;2.85;;;1.88;;
14272;SDS011;7220;49.450;11.052;2023-06-04T01:40:28;1.98;;;1.58;;
14272;SDS011;7220;49.450;11.052;2023-06-04T01:44:28;2.03;;;1.80;;
14272;SDS011;7220;49.450;11.052;2023-06-04T01:48:29;3.60;;;2.25;;
14272;SDS011;7220;49.450;11.052;2023-06-04T01:52:29;4.75;;;2.13;;
14272;SDS011;7220;49.450;11.052;2023-06-04T01:56:30;4.13;;;2.08;;
14272;SDS011;7220;49.450;11.052;2023-06-04T02:00:30;3.35;;;2.00;;
14272;SDS011;7220;49.450;11.052;2023-06-04T02:04:30;1.83;;;1.58;;
14272;SDS011;7220;49.450;11.052;2023-06-04T02:08:31;3.63;;;1.83;;
14272;SDS011;7220;49.450;11.052;2023-06-04T02:12:35;2.55;;;2.05;;
14272;SDS011;7220;49.450;11.052;2023-06-04T02:16:37;2.83;;;1.88;;
14272;SDS011;7220;49.450;11.052;2023-06-04T02:20:37;3.53;;;1.83;;
14272;SDS011;7220;49.450;11.052;2023-06-04T02:24:38;3.17;;;2.10;;
14272;SDS011;7220;49.450;11.052;2023-06-04T02:28:39;3.00;;;1.90;;
14272;SDS011;7220;49.450;11.052;2023-06-04T02:32:39;4.65;;;2.20;;
14272;SDS011;7220;49.450;11.052;2023-06-04T02:36:40;4.40;;;2.08;;
14272;SDS011;7220;49.450;11.052;2023-06-04T02:40:41;2.67;;;1.90;;
14272;SDS011;7220;49.450;11.052;2023-06-04T02:44:42;2.05;;;1.80;;
14272;SDS011;7220;49.450;11.052;2023-06-04T02:48:43;4.47;;;2.17;;
14272;SDS011;7220;49.450;11.052;2023-06-04T02:52:43;2.47;;;2.05;;
14272;SDS011;7220;49.450;11.052;2023-06-04T02:56:44;2.95;;;1.90;;
14272;SDS011;7220;49.450;11.052;2023-06-04T03:00:44;3.63;;;2.15;;
14272;SDS011;7220;49.450;11.052;2023-06-04T03:04:45;4.85;;;1.88;;
14272;SDS011;7220;49.450;11.052;2023-06-04T03:08:48;2.65;;;2.03;;
14272;SDS011;7220;49.450;11.052;2023-06-04T03:12:50;1.88;;;1.75;;
14272;SDS011;7220;49.450;11.052;2023-06-04T03:16:50;2.97;;;1.88;;
14272;SDS011;7220;49.450;11.052;2023-06-04T03:20:51;2.90;;;2.10;;
14272;SDS011;7220;49.450;11.052;2023-06-04T03:24:52;4.65;;;2.10;;
14272;SDS011;7220;49.450;11.052;2023-06-04T03:28:53;3.30;;;2.00;;
14272;SDS011;7220;49.450;11.052;2023-06-04T03:32:53;4.25;;;2.15;;
14272;SDS011;7220;49.450;11.052;2023-06-04T03:36:54;2.40;;;1.90;;
14272;SDS011;7220;49.450;11.052;2023-06-04T03:40:54;2.10;;;1.80;;
14272;SDS011;7220;49.450;11.052;2023-06-04T03:44:55;2.85;;;1.67;;
14272;SDS011;7220;49.450;11.052;2023-06-04T03:48:58;3.15;;;2.25;;
14272;SDS011;7220;49.450;11.052;2023-06-04T03:52:58;3.50;;;1.92;;
14272;SDS011;7220;49.450;11.052;2023-06-04T03:56:58;3.03;;;2.13;;
14272;SDS011;7220;49.450;11.052;2023-06-04T04:00:58;3.00;;;2.17;;
14272;SDS011;7220;49.450;11.052;2023-06-04T04:04:59;4.07;;;2.00;;
14272;SDS011;7220;49.450;11.052;2023-06-04T04:08:59;4.55;;;2.00;;
14272;SDS011;7220;49.450;11.052;2023-06-04T04:13:00;3.92;;;1.95;;
14272;SDS011;7220;49.450;11.052;2023-06-04T04:17:00;3.50;;;2.17;;
14272;SDS011;7220;49.450;11.052;2023-06-04T04:21:01;2.72;;;2.10;;
14272;SDS011;7220;49.450;11.052;2023-06-04T04:25:02;2.97;;;2.10;;
14272;SDS011;7220;49.450;11.052;2023-06-04T04:29:03;3.35;;;2.20;;
14272;SDS011;7220;49.450;11.052;2023-06-04T04:33:03;2.53;;;2.30;;
14272;SDS011;7220;49.450;11.052;2023-06-04T04:37:07;5.25;;;1.90;;
14272;SDS011;7220;49.450;11.052;2023-06-04T04:41:08;7.07;;;2.15;;
14272;SDS011;7220;49.450;11.052;2023-06-04T04:45:08;5.47;;;2.42;;
14272;SDS011;7220;49.450;11.052;2023-06-04T04:49:09;2.20;;;2.03;;
14272;SDS011;7220;49.450;11.052;2023-06-04T04:53:10;2.45;;;1.92;;
14272;SDS011;7220;49.450;11.052;2023-06-04T04:57:10;3.13;;;2.17;;
14272;SDS011;7220;49.450;11.052;2023-06-04T05:01:10;2.83;;;2.55;;
14272;SDS011;7220;49.450;11.052;2023-06-04T05:05:11;4.70;;;1.95;;
14272;SDS011;7220;49.450;11.052;2023-06-04T05:09:13;3.90;;;1.83;;
14272;SDS011;7220;49.450;11.052;2023-06-04T05:13:15;2.28;;;2.08;;
14272;SDS011;7220;49.450;11.052;2023-06-04T05:17:16;3.08;;;2.15;;
14272;SDS011;7220;49.450;11.052;2023-06-04T05:21:21;3.05;;;2.25;;
14272;SDS011;7220;49.450;11.052;2023-06-04T05:25:22;4.43;;;1.92;;
14272;SDS011;7220;49.450;11.052;2023-06-04T05:29:23;4.28;;;2.13;;
14272;SDS011;7220;49.450;11.052;2023-06-04T05:33:23;2.88;;;1.83;;
14272;SDS011;7220;49.450;11.052;2023-06-04T05:37:24;4.30;;;2.25;;
14272;SDS011;7220;49.450;11.052;2023-06-04T05:41:28;2.42;;;2.10;;
14272;SDS011;7220;49.450;11.052;2023-06-04T05:45:29;2.15;;;1.88;;
14272;SDS011;7220;49.450;11.052;2023-06-04T05:49:29;3.93;;;1.90;;
14272;SDS011;7220;49.450;11.052;2023-06-04T05:53:30;2.75;;;1.98;;
14272;SDS011;7220;49.450;11.052;2023-06-04T05:57:30;2.60;;;2.00;;
14272;SDS011;7220;49.450;11.052;2023-06-04T06:01:30;2.20;;;2.00;;
14272;SDS011;7220;49.450;11.052;2023-06-04T06:05:31;2.77;;;1.50;;
14272;SDS011;7220;49.450;11.052;2023-06-04T06:09:31;3.55;;;2.00;;
14272;SDS011;7220;49.450;11.052;2023-06-04T06:13:31;3.60;;;1.95;;
14272;SDS011;7220;49.450;11.052;2023-06-04T06:17:32;2.25;;;2.05;;
14272;SDS011;7220;49.450;11.052;2023-06-04T06:21:32;2.25;;;1.92;;
14272;SDS011;7220;49.450;11.052;2023-06-04T06:25:33;3.95;;;2.20;;
14272;SDS011;7220;49.450;11.052;2023-06-04T06:29:33;4.70;;;2.38;;
14272;SDS011;7220;49.450;11.052;2023-06-04T06:33:33;3.25;;;2.60;;
14272;SDS011;7220;49.450;11.052;2023-06-04T06:37:34;3.87;;;2.40;;
14272;SDS011;7220;49.450;11.052;2023-06-04T06:41:34;3.50;;;2.00;;
14272;SDS011;7220;49.450;11.052;2023-06-04T06:45:34;2.13;;;1.65;;
14272;SDS011;7220;49.450;11.052;2023-06-04T06:49:35;2.10;;;1.90;;
14272;SDS011;7220;49.450;11.052;2023-06-04T06:53:35;2.55;;;2.17;;
14272;SDS011;7220;49.450;11.052;2023-06-04T06:57:36;2.13;;;1.90;;
14272;SDS011;7220;49.450;11.052;2023-06-04T07:01:36;5.53;;;2.13;;
14272;SDS011;7220;49.450;11.052;2023-06-04T07:05:36;2.63;;;1.77;;
14272;SDS011;7220;49.450;11.052;2023-06-04T07:09:36;3.55;;;2.22;;
14272;SDS011;7220;49.450;11.052;2023-06-04T07:13:38;4.70;;;2.95;;
14272;SDS011;7220;49.450;11.052;2023-06-04T07:17:38;2.88;;;2.08;;
14272;SDS011;7220;49.450;11.052;2023-06-04T07:21:39;3.58;;;2.55;;
14272;SDS011;7220;49.450;11.052;2023-06-04T07:25:40;2.70;;;2.30;;
14272;SDS011;7220;49.450;11.052;2023-06-04T07:29:42;3.45;;;2.42;;
14272;SDS011;7220;49.450;11.052;2023-06-04T07:33:43;5.20;;;2.80;;
14272;SDS011;7220;49.450;11.052;2023-06-04T07:37:43;2.85;;;2.20;;
14272;SDS011;7220;49.450;11.052;2023-06-04T07:41:45;3.90;;;2.03;;
14272;SDS011;7220;49.450;11.052;2023-06-04T07:45:45;2.53;;;1.88;;
14272;SDS011;7220;49.450;11.052;2023-06-04T07:49:45;2.97;;;2.17;;
14272;SDS011;7220;49.450;11.052;2023-06-04T07:53:46;4.10;;;2.20;;
14272;SDS011;7220;49.450;11.052;2023-06-04T07:57:46;3.10;;;1.88;;
14272;SDS011;7220;49.450;11.052;2023-06-04T08:01:46;3.20;;;2.17;;
14272;SDS011;7220;49.450;11.052;2023-06-04T08:05:47;9.60;;;2.67;;
14272;SDS011;7220;49.450;11.052;2023-06-04T08:09:47;4.65;;;2.35;;
14272;SDS011;7220;49.450;11.052;2023-06-04T08:13:48;2.40;;;2.13;;
14272;SDS011;7220;49.450;11.052;2023-06-04T08:17:48;3.80;;;2.28;;
14272;SDS011;7220;49.450;11.052;2023-06-04T08:21:49;3.28;;;2.33;;
14272;SDS011;7220;49.450;11.052;2023-06-04T08:25:50;4.32;;;2.58;;
14272;SDS011;7220;49.450;11.052;2023-06-04T08:29:50;2.33;;;2.13;;
14272;SDS011;7220;49.450;11.052;2023-06-04T08:33:52;3.38;;;2.00;;
14272;SDS011;7220;49.450;11.052;2023-06-04T08:37:52;4.38;;;1.92;;
14272;SDS011;7220;49.450;11.052;2023-06-04T08:41:54;3.13;;;2.10;;
14272;SDS011;7220;49.450;11.052;2023-06-04T08:45:59;3.15;;;2.10;;
14272;SDS011;7220;49.450;11.052;2023-06-04T08:50:02;3.17;;;2.05;;
14272;SDS011;7220;49.450;11.052;2023-06-04T08:54:06;5.70;;;2.13;;
14272;SDS011;7220;49.450;11.052;2023-06-04T08:58:07;2.63;;;2.30;;
14272;SDS011;7220;49.450;11.052;2023-06-04T09:02:10;3.53;;;2.13;;
14272;SDS011;7220;49.450;11.052;2023-06-04T09:06:11;3.20;;;2.53;;
14272;SDS011;7220;49.450;11.052;2023-06-04T09:10:12;2.30;;;2.10;;
14272;SDS011;7220;49.450;11.052;2023-06-04T09:14:17;3.08;;;2.72;;
14272;SDS011;7220;49.450;11.052;2023-06-04T09:18:18;5.10;;;2.78;;
14272;SDS011;7220;49.450;11.052;2023-06-04T09:22:18;4.93;;;2.40;;
14272;SDS011;7220;49.450;11.052;2023-06-04T09:26:19;5.70;;;2.95;;
14272;SDS011;7220;49.450;11.052;2023-06-04T09:30:22;2.70;;;2.40;;
14272;SDS011;7220;49.450;11.052;2023-06-04T09:34:29;4.57;;;2.30;;
14272;SDS011;7220;49.450;11.052;2023-06-04T09:38:36;6.95;;;2.63;;
14272;SDS011;7220;49.450;11.052;2023-06-04T09:42:46;2.92;;;2.72;;
14272;SDS011;7220;49.450;11.052;2023-06-04T09:46:55;6.05;;;2.63;;
14272;SDS011;7220;49.450;11.052;2023-06-04T09:51:05;5.18;;;3.58;;
14272;SDS011;7220;49.450;11.052;2023-06-04T09:55:16;2.25;;;2.05;;
14272;SDS011;7220;49.450;11.052;2023-06-04T09:59:22;3.15;;;2.25;;
14272;SDS011;7220;49.450;11.052;2023-06-04T10:03:25;5.05;;;3.15;;
14272;SDS011;7220;49.450;11.052;2023-06-04T10:07:30;3.25;;;2.25;;
14272;SDS011;7220;49.450;11.052;2023-06-04T10:11:35;3.90;;;2.85;;
14272;SDS011;7220;49.450;11.052;2023-06-04T10:15:39;3.13;;;2.78;;
14272;SDS011;7220;49.450;11.052;2023-06-04T10:19:42;2.50;;;2.30;;
14272;SDS011;7220;49.450;11.052;2023-06-04T10:23:44;4.65;;;2.90;;
14272;SDS011;7220;49.450;11.052;2023-06-04T10:27:45;5.68;;;2.55;;
14272;SDS011;7220;49.450;11.052;2023-06-04T10:31:46;4.32;;;3.13;;
14272;SDS011;7220;49.450;11.052;2023-06-04T10:35:47;3.03;;;2.55;;
14272;SDS011;7220;49.450;11.052;2023-06-04T10:39:54;5.60;;;3.22;;
14272;SDS011;7220;49.450;11.052;2023-06-04T10:44:00;3.42;;;2.80;;
14272;SDS011;7220;49.450;11.052;2023-06-04T10:48:02;4.63;;;2.40;;
14272;SDS011;7220;49.450;11.052;2023-06-04T10:52:10;5.28;;;2.55;;
14272;SDS011;7220;49.450;11.052;2023-06-04T10:56:10;3.95;;;3.30;;
14272;SDS011;7220;49.450;11.052;2023-06-04T11:00:11;4.22;;;2.78;;
14272;SDS011;7220;49.450;11.052;2023-06-04T11:04:19;3.53;;;2.78;;
14272;SDS011;7220;49.450;11.052;2023-06-04T11:08:29;4.65;;;2.03;;
14272;SDS011;7220;49.450;11.052;2023-06-04T11:12:30;3.10;;;2.80;;
14272;SDS011;7220;49.450;11.052;2023-06-04T11:16:44;3.53;;;3.17;;
14272;SDS011;7220;49.450;11.052;2023-06-04T11:20:44;2.70;;;2.47;;
14272;SDS011;7220;49.450;11.052;2023-06-04T11:24:46;2.83;;;2.30;;
14272;SDS011;7220;49.450;11.052;2023-06-04T11:28:49;3.63;;;1.90;;
14272;SDS011;7220;49.450;11.052;2023-06-04T11:32:50;2.78;;;2.28;;
14272;SDS011;7220;49.450;11.052;2023-06-04T11:36:50;2.67;;;2.03;;
14272;SDS011;7220;49.450;11.052;2023-06-04T11:40:59;2.38;;;2.17;;
14272;SDS011;7220;49.450;11.052;2023-06-04T11:45:01;4.85;;;2.38;;
14272;SDS011;7220;49.450;11.052;2023-06-04T11:49:01;4.07;;;2.38;;
14272;SDS011;7220;49.450;11.052;2023-06-04T11:53:02;4.38;;;1.92;;
14272;SDS011;7220;49.450;11.052;2023-06-04T11:57:03;5.47;;;2.88;;
14272;SDS011;7220;49.450;11.052;2023-06-04T12:01:05;4.25;;;2.40;;
14272;SDS011;7220;49.450;11.052;2023-06-04T12:05:12;5.03;;;2.42;;
14272;SDS011;7220;49.450;11.052;2023-06-04T12:09:20;3.85;;;2.38;;
14272;SDS011;7220;49.450;11.052;2023-06-04T12:13:22;3.40;;;2.35;;
14272;SDS011;7220;49.450;11.052;2023-06-04T12:17:22;3.20;;;2.40;;
14272;SDS011;7220;49.450;11.052;2023-06-04T12:21:23;3.40;;;3.10;;
14272;SDS011;7220;49.450;11.052;2023-06-04T12:25:28;2.70;;;2.50;;
14272;SDS011;7220;49.450;11.052;2023-06-04T12:29:30;2.80;;;2.50;;
14272;SDS011;7220;49.450;11.052;2023-06-04T12:33:30;5.28;;;4.05;;
14272;SDS011;7220;49.450;11.052;2023-06-04T12:37:30;2.77;;;2.50;;
14272;SDS011;7220;49.450;11.052;2023-06-04T12:41:31;7.90;;;2.70;;
14272;SDS011;7220;49.450;11.052;2023-06-04T12:45:33;3.58;;;2.50;;
14272;SDS011;7220;49.450;11.052;2023-06-04T12:49:34;2.90;;;2.33;;
14272;SDS011;7220;49.450;11.052;2023-06-04T12:53:34;3.60;;;2.15;;
14272;SDS011;7220;49.450;11.052;2023-06-04T12:57:34;3.27;;;2.80;;
14272;SDS011;7220;49.450;11.052;2023-06-04T13:01:35;4.17;;;2.97;;
14272;SDS011;7220;49.450;11.052;2023-06-04T13:05:37;4.45;;;2.40;;
14272;SDS011;7220;49.450;11.052;2023-06-04T13:09:37;2.90;;;2.70;;
14272;SDS011;7220;49.450;11.052;2023-06-04T13:13:38;3.30;;;2.80;;
14272;SDS011;7220;49.450;11.052;2023-06-04T13:17:38;3.13;;;2.70;;
14272;SDS011;7220;49.450;11.052;2023-06-04T13:21:38;3.20;;;2.43;;
14272;SDS011;7220;49.450;11.052;2023-06-04T13:25:39;5.80;;;2.17;;
14272;SDS011;7220;49.450;11.052;2023-06-04T13:29:39;2.75;;;2.50;;
14272;SDS011;7220;49.450;11.052;2023-06-04T13:33:40;4.03;;;2.37;;
14272;SDS011;7220;49.450;11.052;2023-06-04T13:37:41;3.85;;;2.45;;
14272;SDS011;7220;49.450;11.052;2023-06-04T13:41:41;6.00;;;2.22;;
14272;SDS011;7220;49.450;11.052;2023-06-04T13:45:42;4.13;;;2.83;;
14272;SDS011;7220;49.450;11.052;2023-06-04T13:49:44;3.50;;;2.45;;
14272;SDS011;7220;49.450;11.052;2023-06-04T13:53:44;3.67;;;2.40;;
14272;SDS011;7220;49.450;11.052;2023-06-04T13:57:45;3.97;;;2.50;;
14272;SDS011;7220;49.450;11.052;2023-06-04T14:01:45;3.40;;;2.73;;
14272;SDS011;7220;49.450;11.052;2023-06-04T14:05:45;3.50;;;3.20;;
14272;SDS011;7220;49.450;11.052;2023-06-04T14:09:46;4.70;;;2.50;;
14272;SDS011;7220;49.450;11.052;2023-06-04T14:13:46;5.13;;;3.00;;
14272;SDS011;7220;49.450;11.052;2023-06-04T14:17:47;4.53;;;3.60;;
14272;SDS011;7220;49.450;11.052;2023-06-04T14:21:47;4.63;;;3.20;;
14272;SDS011;7220;49.450;11.052;2023-06-04T14:25:48;3.33;;;2.97;;
14272;SDS011;7220;49.450;11.052;2023-06-04T14:29:48;5.57;;;3.83;;
14272;SDS011;7220;49.450;11.052;2023-06-04T14:33:48;3.00;;;2.67;;
14272;SDS011;7220;49.450;11.052;2023-06-04T14:37:49;2.88;;;2.67;;
14272;SDS011;7220;49.450;11.052;2023-06-04T14:41:49;2.97;;;2.60;;
14272;SDS011;7220;49.450;11.052;2023-06-04T14:45:50;2.70;;;2.45;;
14272;SDS011;7220;49.450;11.052;2023-06-04T14:49:50;5.40;;;3.10;;
14272;SDS011;7220;49.450;11.052;2023-06-04T14:53:51;4.63;;;2.87;;
14272;SDS011;7220;49.450;11.052;2023-06-04T14:57:51;4.88;;;2.60;;
14272;SDS011;7220;49.450;11.052;2023-06-04T15:01:52;2.90;;;2.60;;
14272;SDS011;7220;49.450;11.052;2023-06-04T15:05:53;5.20;;;3.58;;
14272;SDS011;7220;49.450;11.052;2023-06-04T15:09:53;4.83;;;3.03;;
14272;SDS011;7220;49.450;11.052;2023-06-04T15:13:54;5.53;;;2.70;;
14272;SDS011;7220;49.450;11.052;2023-06-04T15:17:54;3.53;;;2.60;;
14272;SDS011;7220;49.450;11.052;2023-06-04T15:21:54;6.20;;;5.32;;
14272;SDS011;7220;49.450;11.052;2023-06-04T15:25:55;4.47;;;4.07;;
14272;SDS011;7220;49.450;11.052;2023-06-04T15:29:55;4.20;;;3.80;;
14272;SDS011;7220;49.450;11.052;2023-06-04T15:33:55;3.10;;;2.80;;
14272;SDS011;7220;49.450;11.052;2023-06-04T15:37:56;5.55;;;3.10;;
14272;SDS011;7220;49.450;11.052;2023-06-04T15:41:56;5.35;;;3.10;;
14272;SDS011;7220;49.450;11.052;2023-06-04T15:45:57;4.93;;;3.00;;
14272;SDS011;7220;49.450;11.052;2023-06-04T15:49:57;4.88;;;3.33;;
14272;SDS011;7220;49.450;11.052;2023-06-04T15:53:57;3.60;;;2.70;;
14272;SDS011;7220;49.450;11.052;2023-06-04T15:57:58;3.28;;;2.58;;
14272;SDS011;7220;49.450;11.052;2023-06-04T16:01:58;3.37;;;2.90;;
14272;SDS011;7220;49.450;11.052;2023-06-04T16:06:00;3.50;;;3.20;;
14272;SDS011;7220;49.450;11.052;2023-06-04T16:10:00;5.90;;;3.00;;
14272;SDS011;7220;49.450;11.052;2023-06-04T16:14:01;3.77;;;3.23;;
14272;SDS011;7220;49.450;11.052;2023-06-04T16:18:02;2.53;;;2.33;;
14272;SDS011;7220;49.450;11.052;2023-06-04T16:22:02;2.40;;;2.20;;
14272;SDS011;7220;49.450;11.052;2023-06-04T16:26:03;3.42;;;2.83;;
14272;SDS011;7220;49.450;11.052;2023-06-04T16:30:04;5.03;;;3.10;;
14272;SDS011;7220;49.450;11.052;2023-06-04T16:34:05;5.30;;;2.90;;
14272;SDS011;7220;49.450;11.052;2023-06-04T16:38:05;3.33;;;2.70;;
14272;SDS011;7220;49.450;11.052;2023-06-04T16:42:06;5.90;;;3.10;;
14272;SDS011;7220;49.450;11.052;2023-06-04T16:46:07;6.65;;;3.42;;
14272;SDS011;7220;49.450;11.052;2023-06-04T16:50:08;5.82;;;2.92;;
14272;SDS011;7220;49.450;11.052;2023-06-04T16:54:09;4.35;;;3.17;;
14272;SDS011;7220;49.450;11.052;2023-06-04T16:58:10;3.63;;;3.33;;
14272;SDS011;7220;49.450;11.052;2023-06-04T17:02:10;5.90;;;3.85;;
14272;SDS011;7220;49.450;11.052;2023-06-04T17:06:11;5.40;;;3.20;;
14272;SDS011;7220;49.450;11.052;2023-06-04T17:10:11;3.90;;;3.20;;
14272;SDS011;7220;49.450;11.052;2023-06-04T17:14:12;6.20;;;2.90;;
14272;SDS011;7220;49.450;11.052;2023-06-04T17:18:12;3.73;;;2.70;;
14272;SDS011;7220;49.450;11.052;2023-06-04T17:22:13;8.35;;;5.70;;
14272;SDS011;7220;49.450;11.052;2023-06-04T17:26:14;5.75;;;3.78;;
14272;SDS011;7220;49.450;11.052;2023-06-04T17:30:14;3.75;;;3.35;;
14272;SDS011;7220;49.450;11.052;2023-06-04T17:34:15;7.47;;;3.33;;
14272;SDS011;7220;49.450;11.052;2023-06-04T17:38:15;5.17;;;3.77;;
14272;SDS011;7220;49.450;11.052;2023-06-04T17:42:15;4.43;;;3.40;;
14272;SDS011;7220;49.450;11.052;2023-06-04T17:46:16;6.90;;;6.20;;
14272;SDS011;7220;49.450;11.052;2023-06-04T17:50:16;4.35;;;3.33;;
14272;SDS011;7220;49.450;11.052;2023-06-04T17:54:17;11.35;;;8.73;;
14272;SDS011;7220;49.450;11.052;2023-06-04T17:58:17;12.93;;;8.53;;
14272;SDS011;7220;49.450;11.052;2023-06-04T18:02:18;6.70;;;4.45;;
14272;SDS011;7220;49.450;11.052;2023-06-04T18:06:18;6.37;;;4.50;;
14272;SDS011;7220;49.450;11.052;2023-06-04T18:10:18;6.57;;;5.55;;
14272;SDS011;7220;49.450;11.052;2023-06-04T18:14:20;3.42;;;3.00;;
14272;SDS011;7220;49.450;11.052;2023-06-04T18:18:21;4.10;;;3.77;;
14272;SDS011;7220;49.450;11.052;2023-06-04T18:22:21;4.63;;;3.70;;
14272;SDS011;7220;49.450;11.052;2023-06-04T18:26:21;4.13;;;3.17;;
14272;SDS011;7220;49.450;11.052;2023-06-04T18:30:22;4.72;;;3.40;;
14272;SDS011;7220;49.450;11.052;2023-06-04T18:34:23;3.67;;;2.87;;
14272;SDS011;7220;49.450;11.052;2023-06-04T18:38:23;4.55;;;3.13;;
14272;SDS011;7220;49.450;11.052;2023-06-04T18:42:23;4.10;;;3.67;;
14272;SDS011;7220;49.450;11.052;2023-06-04T18:46:23;5.90;;;3.43;;
14272;SDS011;7220;49.450;11.052;2023-06-04T18:50:24;3.87;;;3.17;;
14272;SDS011;7220;49.450;11.052;2023-06-04T18:54:24;3.58;;;2.78;;
14272;SDS011;7220;49.450;11.052;2023-06-04T18:58:24;4.30;;;3.07;;
14272;SDS011;7220;49.450;11.052;2023-06-04T19:02:25;3.50;;;3.20;;
14272;SDS011;7220;49.450;11.052;2023-06-04T19:06:25;5.60;;;3.67;;
14272;SDS011;7220;49.450;11.052;2023-06-04T19:10:26;4.30;;;3.50;;
14272;SDS011;7220;49.450;11.052;2023-06-04T19:14:26;7.30;;;3.45;;
14272;SDS011;7220;49.450;11.052;2023-06-04T19:18:27;7.63;;;3.97;;
14272;SDS011;7220;49.450;11.052;2023-06-04T19:22:27;4.97;;;3.53;;
14272;SDS011;7220;49.450;11.052;2023-06-04T19:26:27;4.30;;;3.45;;
14272;SDS011;7220;49.450;11.052;2023-06-04T19:30:28;4.03;;;3.10;;
14272;SDS011;7220;49.450;11.052;2023-06-04T19:34:28;4.87;;;3.53;;
14272;SDS011;7220;49.450;11.052;2023-06-04T19:38:28;4.30;;;3.20;;
14272;SDS011;7220;49.450;11.052;2023-06-04T19:42:29;3.40;;;2.97;;
14272;SDS011;7220;49.450;11.052;2023-06-04T19:46:29;5.27;;;3.33;;
14272;SDS011;7220;49.450;11.052;2023-06-04T19:50:29;6.70;;;3.53;;
14272;SDS011;7220;49.450;11.052;2023-06-04T19:54:30;3.75;;;3.40;;
14272;SDS011;7220;49.450;11.052;2023-06-04T19:58:30;6.43;;;4.75;;
14272;SDS011;7220;49.450;11.052;2023-06-04T20:02:30;7.15;;;6.25;;
14272;SDS011;7220;49.450;11.052;2023-06-04T20:55:37;5.35;;;3.53;;
14272;SDS011;7220;49.450;11.052;2023-06-04T20:59:38;5.13;;;3.10;;
14272;SDS011;7220;49.450;11.052;2023-06-04T21:03:38;3.35;;;2.67;;
14272;SDS011;7220;49.450;11.052;2023-06-04T21:07:39;5.32;;;2.95;;
14272;SDS011;7220;49.450;11.052;2023-06-04T21:11:39;4.40;;;2.58;;
14272;SDS011;7220;49.450;11.052;2023-06-04T21:15:39;3.83;;;2.30;;
14272;SDS011;7220;49.450;11.052;2023-06-04T21:19:40;5.03;;;2.50;;
14272;SDS011;7220;49.450;11.052;2023-06-04T21:23:40;3.08;;;2.40;;
14272;SDS011;7220;49.450;11.052;2023-06-04T21:27:40;2.83;;;2.30;;
14272;SDS011;7220;49.450;11.052;2023-06-04T21:31:41;3.17;;;2.28;;
14272;SDS011;7220;49.450;11.052;2023-06-04T21:35:41;3.00;;;2.70;;
14272;SDS011;7220;49.450;11.052;2023-06-04T21:39:41;3.00;;;2.47;;
14272;SDS011;7220;49.450;11.052;2023-06-04T21:43:42;2.85;;;2.30;;
14272;SDS011;7220;49.450;11.052;2023-06-04T21:47:42;3.83;;;2.23;;
14272;SDS011;7220;49.450;11.052;2023-06-04T21:51:42;2.25;;;2.05;;
14272;SDS011;7220;49.450;11.052;2023-06-04T21:55:42;3.93;;;2.20;;
14272;SDS011;7220;49.450;11.052;2023-06-04T21:59:43;2.23;;;2.00;;
14272;SDS011;7220;49.450;11.052;2023-06-04T22:03:43;4.17;;;2.20;;
14272;SDS011;7220;49.450;11.052;2023-06-04T22:07:43;5.03;;;2.10;;
14272;SDS011;7220;49.450;11.052;2023-06-04T22:11:44;2.33;;;2.00;;
14272;SDS011;7220;49.450;11.052;2023-06-04T22:15:44;3.13;;;2.50;;
14272;SDS011;7220;49.450;11.052;2023-06-04T22:19:44;3.50;;;2.13;;
14272;SDS011;7220;49.450;11.052;2023-06-04T22:23:44;2.40;;;2.20;;
14272;SDS011;7220;49.450;11.052;2023-06-04T22:27:45;3.20;;;2.60;;
14272;SDS011;7220;49.450;11.052;2023-06-04T22:31:45;3.37;;;2.17;;
14272;SDS011;7220;49.450;11.052;2023-06-04T22:35:45;3.50;;;2.00;;
14272;SDS011;7220;49.450;11.052;2023-06-04T22:39:46;2.20;;;2.00;;
14272;SDS011;7220;49.450;11.052;2023-06-04T22:43:46;4.57;;;2.13;;
14272;SDS011;7220;49.450;11.052;2023-06-04T22:47:46;2.80;;;2.07;;
14272;SDS011;7220;49.450;11.052;2023-06-04T22:51:47;5.73;;;2.10;;
14272;SDS011;7220;49.450;11.052;2023-06-04T22:55:47;2.85;;;2.30;;
14272;SDS011;7220;49.450;11.052;2023-06-04T22:59:47;4.57;;;2.00;;
14272;SDS011;7220;49.450;11.052;2023-06-04T23:03:48;2.60;;;2.40;;
14272;SDS011;7220;49.450;11.052;2023-06-04T23:07:48;2.90;;;2.17;;
14272;SDS011;7220;49.450;11.052;2023-06-04T23:11:49;3.57;;;2.30;;
14272;SDS011;7220;49.450;11.052;2023-06-04T23:15:49;2.92;;;2.60;;
14272;SDS011;7220;49.450;11.052;2023-06-04T23:19:50;2.38;;;2.15;;
14272;SDS011;7220;49.450;11.052;2023-06-04T23:23:50;2.50;;;2.30;;
14272;SDS011;7220;49.450;11.052;2023-06-04T23:27:50;2.85;;;1.98;;
14272;SDS011;7220;49.450;11.052;2023-06-04T23:31:51;4.13;;;2.27;;
14272;SDS011;7220;49.450;11.052;2023-06-04T23:35:51;4.37;;;2.63;;
14272;SDS011;7220;49.450;11.052;2023-06-04T23:39:51;3.25;;;2.20;;
14272;SDS011;7220;49.450;11.052;2023-06-04T23:43:52;3.88;;;2.20;;
14272;SDS011;7220;49.450;11.052;2023-06-04T23:47:52;2.70;;;2.45;;
14272;SDS011;7220;49.450;11.052;2023-06-04T23:51:52;3.00;;;2.53;;
14272;SDS011;7220;49.450;11.052;2023-06-04T23:55:53;3.23;;;2.30;;
14272;SDS011;7220;49.450;11.052;2023-06-04T23:59:53;4.15;;;2.30;;
